sensor_id;sensor_type;location;lat;lon;timestamp;temperature;humidity
6375;DHT22;35400;45.472;-122.822;2023-04-03T00:00:49;9.70;99.90
6375;DHT22;35400;45.472;-122.822;2023-04-03T00:03:17;9.70;99.90
6375;DHT22;35400;45.472;-122.822;2023-04-03T00:05:46;9.70;99.90
6375;DHT22;35400;45.472;-122.822;2023-04-03T00:08:14;9.70;99.90
6375;DHT22;35400;45.472;-122.822;2023-04-03T00:10:41;9.70;99.90
6375;DHT22;35400;45.472;-122.822;2023-04-03T00:13:09;9.70;99.90
6375;DHT22;35400;45.472;-122.822;2023-04-03T00:15:37;9.60;99.90
6375;DHT22;35400;45.472;-122.822;2023-04-03T00:18:05;9.70;99.90
6375;DHT22;35400;45.472;-122.822;2023-04-03T00:20:32;9.60;99.90
6375;DHT22;35400;45.472;-122.822;2023-04-03T00:23:00;9.60;99.90
6375;DHT22;35400;45.472;-122.822;2023-04-03T00:25:27;9.60;99.90
6375;DHT22;35400;45.472;-122.822;2023-04-03T00:27:54;9.50;99.90
6375;DHT22;35400;45.472;-122.822;2023-04-03T00:30:22;9.50;99.90
6375;DHT22;35400;45.472;-122.822;2023-04-03T00:32:50;9.40;99.90
6375;DHT22;35400;45.472;-122.822;2023-04-03T00:35:18;9.20;99.90
6375;DHT22;35400;45.472;-122.822;2023-04-03T00:37:46;8.80;99.90
6375;DHT22;35400;45.472;-122.822;2023-04-03T00:40:15;8.60;99.90
6375;DHT22;35400;45.472;-122.822;2023-04-03T00:42:44;8.30;99.90
6375;DHT22;35400;45.472;-122.822;2023-04-03T00:47:46;8.00;99.90
6375;DHT22;35400;45.472;-122.822;2023-04-03T00:50:13;7.80;99.90
6375;DHT22;35400;45.472;-122.822;2023-04-03T00:52:41;7.70;99.90
6375;DHT22;35400;45.472;-122.822;2023-04-03T00:55:09;7.70;99.90
6375;DHT22;35400;45.472;-122.822;2023-04-03T00:57:37;7.60;99.90
6375;DHT22;35400;45.472;-122.822;2023-04-03T01:00:11;7.50;99.90
6375;DHT22;35400;45.472;-122.822;2023-04-03T01:02:39;7.50;99.90
6375;DHT22;35400;45.472;-122.822;2023-04-03T01:05:09;7.40;99.90
6375;DHT22;35400;45.472;-122.822;2023-04-03T01:07:40;7.40;99.90
6375;DHT22;35400;45.472;-122.822;2023-04-03T01:10:10;7.40;99.90
6375;DHT22;35400;45.472;-122.822;2023-04-03T01:12:42;7.40;99.90
6375;DHT22;35400;45.472;-122.822;2023-04-03T01:15:16;7.40;99.90
6375;DHT22;35400;45.472;-122.822;2023-04-03T01:17:57;7.40;99.90
6375;DHT22;35400;45.472;-122.822;2023-04-03T01:25:40;7.40;99.90
6375;DHT22;35400;45.472;-122.822;2023-04-03T01:28:16;7.40;99.90
6375;DHT22;35400;45.472;-122.822;2023-04-03T01:33:38;7.40;99.90
6375;DHT22;35400;45.472;-122.822;2023-04-03T01:36:08;7.30;99.90
6375;DHT22;35400;45.472;-122.822;2023-04-03T01:38:36;7.30;99.90
6375;DHT22;35400;45.472;-122.822;2023-04-03T01:41:03;7.30;99.90
6375;DHT22;35400;45.472;-122.822;2023-04-03T01:43:30;7.30;99.90
6375;DHT22;35400;45.472;-122.822;2023-04-03T01:45:57;7.30;99.90
6375;DHT22;35400;45.472;-122.822;2023-04-03T01:48:27;7.30;99.90
6375;DHT22;35400;45.472;-122.822;2023-04-03T01:50:54;7.30;99.90
6375;DHT22;35400;45.472;-122.822;2023-04-03T01:53:21;7.30;99.90
6375;DHT22;35400;45.472;-122.822;2023-04-03T01:55:48;7.30;99.90
6375;DHT22;35400;45.472;-122.822;2023-04-03T01:58:16;7.20;99.90
6375;DHT22;35400;45.472;-122.822;2023-04-03T02:00:43;7.20;99.90
6375;DHT22;35400;45.472;-122.822;2023-04-03T02:03:10;7.10;99.90
6375;DHT22;35400;45.472;-122.822;2023-04-03T02:05:37;7.10;99.90
6375;DHT22;35400;45.472;-122.822;2023-04-03T02:08:05;7.00;99.90
6375;DHT22;35400;45.472;-122.822;2023-04-03T02:10:32;7.00;99.90
6375;DHT22;35400;45.472;-122.822;2023-04-03T02:12:59;6.90;99.90
6375;DHT22;35400;45.472;-122.822;2023-04-03T02:15:26;6.80;99.90
6375;DHT22;35400;45.472;-122.822;2023-04-03T02:17:53;6.80;99.90
6375;DHT22;35400;45.472;-122.822;2023-04-03T02:20:21;6.70;99.90
6375;DHT22;35400;45.472;-122.822;2023-04-03T02:22:57;6.60;99.90
6375;DHT22;35400;45.472;-122.822;2023-04-03T02:25:25;6.60;99.90
6375;DHT22;35400;45.472;-122.822;2023-04-03T02:27:54;6.50;99.90
6375;DHT22;35400;45.472;-122.822;2023-04-03T02:30:21;6.50;99.90
6375;DHT22;35400;45.472;-122.822;2023-04-03T02:32:48;6.40;99.90
6375;DHT22;35400;45.472;-122.822;2023-04-03T02:35:16;6.40;99.90
6375;DHT22;35400;45.472;-122.822;2023-04-03T02:37:43;6.30;99.90
6375;DHT22;35400;45.472;-122.822;2023-04-03T02:40:10;6.30;99.90
6375;DHT22;35400;45.472;-122.822;2023-04-03T02:42:38;6.20;99.90
6375;DHT22;35400;45.472;-122.822;2023-04-03T02:45:06;6.10;99.90
6375;DHT22;35400;45.472;-122.822;2023-04-03T02:47:33;6.00;99.90
6375;DHT22;35400;45.472;-122.822;2023-04-03T02:50:00;5.90;99.90
6375;DHT22;35400;45.472;-122.822;2023-04-03T02:52:27;5.80;99.90
6375;DHT22;35400;45.472;-122.822;2023-04-03T02:54:57;5.70;99.90
6375;DHT22;35400;45.472;-122.822;2023-04-03T02:57:24;5.60;99.90
6375;DHT22;35400;45.472;-122.822;2023-04-03T02:59:51;5.60;99.90
6375;DHT22;35400;45.472;-122.822;2023-04-03T03:02:18;5.50;99.90
6375;DHT22;35400;45.472;-122.822;2023-04-03T03:04:45;5.40;99.90
6375;DHT22;35400;45.472;-122.822;2023-04-03T03:07:12;5.40;99.90
6375;DHT22;35400;45.472;-122.822;2023-04-03T03:09:39;5.30;99.90
6375;DHT22;35400;45.472;-122.822;2023-04-03T03:12:05;5.30;99.90
6375;DHT22;35400;45.472;-122.822;2023-04-03T03:14:32;5.20;99.90
6375;DHT22;35400;45.472;-122.822;2023-04-03T03:16:59;5.20;99.90
6375;DHT22;35400;45.472;-122.822;2023-04-03T03:19:26;5.10;99.90
6375;DHT22;35400;45.472;-122.822;2023-04-03T03:21:53;5.10;99.90
6375;DHT22;35400;45.472;-122.822;2023-04-03T03:24:22;5.00;99.90
6375;DHT22;35400;45.472;-122.822;2023-04-03T03:26:49;5.00;99.90
6375;DHT22;35400;45.472;-122.822;2023-04-03T03:29:16;4.90;99.90
6375;DHT22;35400;45.472;-122.822;2023-04-03T03:31:44;4.80;99.90
6375;DHT22;35400;45.472;-122.822;2023-04-03T03:34:11;4.80;99.90
6375;DHT22;35400;45.472;-122.822;2023-04-03T03:36:38;4.80;99.90
6375;DHT22;35400;45.472;-122.822;2023-04-03T03:39:05;4.70;99.90
6375;DHT22;35400;45.472;-122.822;2023-04-03T03:41:32;4.60;99.90
6375;DHT22;35400;45.472;-122.822;2023-04-03T03:44:00;4.60;99.90
6375;DHT22;35400;45.472;-122.822;2023-04-03T03:46:29;4.50;99.90
6375;DHT22;35400;45.472;-122.822;2023-04-03T03:48:56;4.50;99.90
6375;DHT22;35400;45.472;-122.822;2023-04-03T03:51:23;4.40;99.90
6375;DHT22;35400;45.472;-122.822;2023-04-03T03:53:51;4.30;99.90
6375;DHT22;35400;45.472;-122.822;2023-04-03T03:56:20;4.30;99.90
6375;DHT22;35400;45.472;-122.822;2023-04-03T03:58:47;4.20;99.90
6375;DHT22;35400;45.472;-122.822;2023-04-03T04:01:14;4.10;99.90
6375;DHT22;35400;45.472;-122.822;2023-04-03T04:03:46;4.10;99.90
6375;DHT22;35400;45.472;-122.822;2023-04-03T04:06:17;4.00;99.90
6375;DHT22;35400;45.472;-122.822;2023-04-03T04:08:44;4.00;99.90
6375;DHT22;35400;45.472;-122.822;2023-04-03T04:11:13;3.90;99.90
6375;DHT22;35400;45.472;-122.822;2023-04-03T04:13:41;3.90;99.90
6375;DHT22;35400;45.472;-122.822;2023-04-03T04:16:09;3.90;99.90
6375;DHT22;35400;45.472;-122.822;2023-04-03T04:18:36;3.90;99.90
6375;DHT22;35400;45.472;-122.822;2023-04-03T04:21:04;3.80;99.90
6375;DHT22;35400;45.472;-122.822;2023-04-03T04:23:31;3.80;99.90
6375;DHT22;35400;45.472;-122.822;2023-04-03T04:25:59;3.80;99.90
6375;DHT22;35400;45.472;-122.822;2023-04-03T04:28:29;3.70;99.90
6375;DHT22;35400;45.472;-122.822;2023-04-03T04:30:58;3.70;99.90
6375;DHT22;35400;45.472;-122.822;2023-04-03T04:33:26;3.70;99.90
6375;DHT22;35400;45.472;-122.822;2023-04-03T04:35:53;3.70;99.90
6375;DHT22;35400;45.472;-122.822;2023-04-03T04:38:21;3.70;99.90
6375;DHT22;35400;45.472;-122.822;2023-04-03T04:40:51;3.70;99.90
6375;DHT22;35400;45.472;-122.822;2023-04-03T04:43:18;3.60;99.90
6375;DHT22;35400;45.472;-122.822;2023-04-03T04:45:48;3.70;99.90
6375;DHT22;35400;45.472;-122.822;2023-04-03T04:48:18;3.60;99.90
6375;DHT22;35400;45.472;-122.822;2023-04-03T04:50:46;3.70;99.90
6375;DHT22;35400;45.472;-122.822;2023-04-03T04:53:13;3.60;99.90
6375;DHT22;35400;45.472;-122.822;2023-04-03T04:55:41;3.60;99.90
6375;DHT22;35400;45.472;-122.822;2023-04-03T04:58:09;3.60;99.90
6375;DHT22;35400;45.472;-122.822;2023-04-03T05:00:36;3.60;99.90
6375;DHT22;35400;45.472;-122.822;2023-04-03T05:03:03;3.60;99.90
6375;DHT22;35400;45.472;-122.822;2023-04-03T05:05:31;3.50;99.90
6375;DHT22;35400;45.472;-122.822;2023-04-03T05:07:58;3.50;99.90
6375;DHT22;35400;45.472;-122.822;2023-04-03T05:10:25;3.50;99.90
6375;DHT22;35400;45.472;-122.822;2023-04-03T05:12:53;3.50;99.90
6375;DHT22;35400;45.472;-122.822;2023-04-03T05:15:20;3.50;99.90
6375;DHT22;35400;45.472;-122.822;2023-04-03T05:17:47;3.50;99.90
6375;DHT22;35400;45.472;-122.822;2023-04-03T05:20:15;3.50;99.90
6375;DHT22;35400;45.472;-122.822;2023-04-03T05:22:44;3.50;99.90
6375;DHT22;35400;45.472;-122.822;2023-04-03T05:25:12;3.50;99.90
6375;DHT22;35400;45.472;-122.822;2023-04-03T05:27:42;3.50;99.90
6375;DHT22;35400;45.472;-122.822;2023-04-03T05:30:09;3.50;99.90
6375;DHT22;35400;45.472;-122.822;2023-04-03T05:32:39;3.50;99.90
6375;DHT22;35400;45.472;-122.822;2023-04-03T05:35:17;3.50;99.90
6375;DHT22;35400;45.472;-122.822;2023-04-03T05:37:46;3.50;99.90
6375;DHT22;35400;45.472;-122.822;2023-04-03T05:40:14;3.50;99.90
6375;DHT22;35400;45.472;-122.822;2023-04-03T05:42:44;3.40;99.90
6375;DHT22;35400;45.472;-122.822;2023-04-03T05:45:12;3.40;99.90
6375;DHT22;35400;45.472;-122.822;2023-04-03T05:47:39;3.40;99.90
6375;DHT22;35400;45.472;-122.822;2023-04-03T05:50:07;3.40;99.90
6375;DHT22;35400;45.472;-122.822;2023-04-03T05:52:37;3.40;99.90
6375;DHT22;35400;45.472;-122.822;2023-04-03T05:55:05;3.40;99.90
6375;DHT22;35400;45.472;-122.822;2023-04-03T05:57:34;3.40;99.90
6375;DHT22;35400;45.472;-122.822;2023-04-03T06:00:03;3.40;99.90
6375;DHT22;35400;45.472;-122.822;2023-04-03T06:02:40;3.30;99.90
6375;DHT22;35400;45.472;-122.822;2023-04-03T06:05:12;3.30;99.90
6375;DHT22;35400;45.472;-122.822;2023-04-03T06:07:40;3.30;99.90
6375;DHT22;35400;45.472;-122.822;2023-04-03T06:10:12;3.30;99.90
6375;DHT22;35400;45.472;-122.822;2023-04-03T06:12:39;3.20;99.90
6375;DHT22;35400;45.472;-122.822;2023-04-03T06:15:07;3.20;99.90
6375;DHT22;35400;45.472;-122.822;2023-04-03T06:17:37;3.20;99.90
6375;DHT22;35400;45.472;-122.822;2023-04-03T06:20:04;3.20;99.90
6375;DHT22;35400;45.472;-122.822;2023-04-03T06:22:31;3.20;99.90
6375;DHT22;35400;45.472;-122.822;2023-04-03T06:24:58;3.20;99.90
6375;DHT22;35400;45.472;-122.822;2023-04-03T06:27:25;3.20;99.90
6375;DHT22;35400;45.472;-122.822;2023-04-03T06:29:52;3.20;99.90
6375;DHT22;35400;45.472;-122.822;2023-04-03T06:32:19;3.20;99.90
6375;DHT22;35400;45.472;-122.822;2023-04-03T06:34:46;3.20;99.90
6375;DHT22;35400;45.472;-122.822;2023-04-03T06:37:19;3.20;99.90
6375;DHT22;35400;45.472;-122.822;2023-04-03T06:39:47;3.20;99.90
6375;DHT22;35400;45.472;-122.822;2023-04-03T06:42:14;3.20;99.90
6375;DHT22;35400;45.472;-122.822;2023-04-03T06:44:52;3.20;99.90
6375;DHT22;35400;45.472;-122.822;2023-04-03T06:47:19;3.20;99.90
6375;DHT22;35400;45.472;-122.822;2023-04-03T06:49:47;3.20;99.90
6375;DHT22;35400;45.472;-122.822;2023-04-03T06:52:14;3.30;99.90
6375;DHT22;35400;45.472;-122.822;2023-04-03T06:54:41;3.30;99.90
6375;DHT22;35400;45.472;-122.822;2023-04-03T06:57:08;3.30;99.90
6375;DHT22;35400;45.472;-122.822;2023-04-03T06:59:35;3.30;99.90
6375;DHT22;35400;45.472;-122.822;2023-04-03T07:02:03;3.30;99.90
6375;DHT22;35400;45.472;-122.822;2023-04-03T07:04:29;3.30;99.90
6375;DHT22;35400;45.472;-122.822;2023-04-03T07:06:57;3.30;99.90
6375;DHT22;35400;45.472;-122.822;2023-04-03T07:09:23;3.30;99.90
6375;DHT22;35400;45.472;-122.822;2023-04-03T07:11:51;3.30;99.90
6375;DHT22;35400;45.472;-122.822;2023-04-03T07:14:18;3.40;99.90
6375;DHT22;35400;45.472;-122.822;2023-04-03T07:16:45;3.40;99.90
6375;DHT22;35400;45.472;-122.822;2023-04-03T07:19:11;3.30;99.90
6375;DHT22;35400;45.472;-122.822;2023-04-03T07:21:39;3.30;99.90
6375;DHT22;35400;45.472;-122.822;2023-04-03T07:24:08;3.30;99.90
6375;DHT22;35400;45.472;-122.822;2023-04-03T07:26:35;3.30;99.90
6375;DHT22;35400;45.472;-122.822;2023-04-03T07:29:02;3.20;99.90
6375;DHT22;35400;45.472;-122.822;2023-04-03T07:31:29;3.20;99.90
6375;DHT22;35400;45.472;-122.822;2023-04-03T07:33:56;3.20;99.90
6375;DHT22;35400;45.472;-122.822;2023-04-03T07:36:23;3.20;99.90
6375;DHT22;35400;45.472;-122.822;2023-04-03T07:38:50;3.10;99.90
6375;DHT22;35400;45.472;-122.822;2023-04-03T07:41:19;3.10;99.90
6375;DHT22;35400;45.472;-122.822;2023-04-03T07:43:47;3.10;99.90
6375;DHT22;35400;45.472;-122.822;2023-04-03T07:46:16;3.10;99.90
6375;DHT22;35400;45.472;-122.822;2023-04-03T07:48:45;3.10;99.90
6375;DHT22;35400;45.472;-122.822;2023-04-03T07:51:12;3.10;99.90
6375;DHT22;35400;45.472;-122.822;2023-04-03T07:53:39;3.10;99.90
6375;DHT22;35400;45.472;-122.822;2023-04-03T07:56:06;3.10;99.90
6375;DHT22;35400;45.472;-122.822;2023-04-03T07:58:33;3.10;99.90
6375;DHT22;35400;45.472;-122.822;2023-04-03T08:01:00;3.00;99.90
6375;DHT22;35400;45.472;-122.822;2023-04-03T08:03:28;3.00;99.90
6375;DHT22;35400;45.472;-122.822;2023-04-03T08:05:55;3.00;99.90
6375;DHT22;35400;45.472;-122.822;2023-04-03T08:08:27;3.00;99.90
6375;DHT22;35400;45.472;-122.822;2023-04-03T08:10:57;3.10;99.90
6375;DHT22;35400;45.472;-122.822;2023-04-03T08:13:24;3.10;99.90
6375;DHT22;35400;45.472;-122.822;2023-04-03T08:15:51;3.10;99.90
6375;DHT22;35400;45.472;-122.822;2023-04-03T08:18:19;3.10;99.90
6375;DHT22;35400;45.472;-122.822;2023-04-03T08:20:48;3.10;99.90
6375;DHT22;35400;45.472;-122.822;2023-04-03T08:23:14;3.10;99.90
6375;DHT22;35400;45.472;-122.822;2023-04-03T08:25:43;3.10;99.90
6375;DHT22;35400;45.472;-122.822;2023-04-03T08:28:11;3.10;99.90
6375;DHT22;35400;45.472;-122.822;2023-04-03T08:30:40;3.10;99.90
6375;DHT22;35400;45.472;-122.822;2023-04-03T08:33:09;3.10;99.90
6375;DHT22;35400;45.472;-122.822;2023-04-03T08:35:40;3.20;99.90
6375;DHT22;35400;45.472;-122.822;2023-04-03T08:38:09;3.20;99.90
6375;DHT22;35400;45.472;-122.822;2023-04-03T08:40:36;3.20;99.90
6375;DHT22;35400;45.472;-122.822;2023-04-03T08:45:45;3.20;99.90
6375;DHT22;35400;45.472;-122.822;2023-04-03T08:48:20;3.20;99.90
6375;DHT22;35400;45.472;-122.822;2023-04-03T08:50:57;3.20;99.90
6375;DHT22;35400;45.472;-122.822;2023-04-03T08:53:28;3.20;99.90
6375;DHT22;35400;45.472;-122.822;2023-04-03T08:55:59;3.20;99.90
6375;DHT22;35400;45.472;-122.822;2023-04-03T08:58:55;3.20;99.90
6375;DHT22;35400;45.472;-122.822;2023-04-03T09:01:35;3.20;99.90
6375;DHT22;35400;45.472;-122.822;2023-04-03T09:04:10;3.10;99.90
6375;DHT22;35400;45.472;-122.822;2023-04-03T09:06:38;3.10;99.90
6375;DHT22;35400;45.472;-122.822;2023-04-03T09:12:25;3.10;99.90
6375;DHT22;35400;45.472;-122.822;2023-04-03T09:25:52;3.10;99.90
6375;DHT22;35400;45.472;-122.822;2023-04-03T09:28:20;3.10;99.90
6375;DHT22;35400;45.472;-122.822;2023-04-03T09:30:47;3.10;99.90
6375;DHT22;35400;45.472;-122.822;2023-04-03T09:33:15;3.10;99.90
6375;DHT22;35400;45.472;-122.822;2023-04-03T09:35:43;3.10;99.90
6375;DHT22;35400;45.472;-122.822;2023-04-03T09:40:39;3.10;99.90
6375;DHT22;35400;45.472;-122.822;2023-04-03T09:43:26;3.10;99.90
6375;DHT22;35400;45.472;-122.822;2023-04-03T09:45:56;3.10;99.90
6375;DHT22;35400;45.472;-122.822;2023-04-03T09:48:52;3.10;99.90
6375;DHT22;35400;45.472;-122.822;2023-04-03T09:51:25;3.10;99.90
6375;DHT22;35400;45.472;-122.822;2023-04-03T09:53:55;3.10;99.90
6375;DHT22;35400;45.472;-122.822;2023-04-03T10:01:33;3.10;99.90
6375;DHT22;35400;45.472;-122.822;2023-04-03T10:04:05;3.10;99.90
6375;DHT22;35400;45.472;-122.822;2023-04-03T10:06:35;3.10;99.90
6375;DHT22;35400;45.472;-122.822;2023-04-03T10:09:25;3.10;99.90
6375;DHT22;35400;45.472;-122.822;2023-04-03T10:12:08;3.10;99.90
6375;DHT22;35400;45.472;-122.822;2023-04-03T10:20:07;3.00;99.90
6375;DHT22;35400;45.472;-122.822;2023-04-03T10:31:04;2.80;99.90
6375;DHT22;35400;45.472;-122.822;2023-04-03T10:42:33;2.80;99.90
6375;DHT22;35400;45.472;-122.822;2023-04-03T10:45:23;2.80;99.90
6375;DHT22;35400;45.472;-122.822;2023-04-03T10:48:45;2.80;99.90
6375;DHT22;35400;45.472;-122.822;2023-04-03T10:51:12;2.70;99.90
6375;DHT22;35400;45.472;-122.822;2023-04-03T10:56:22;2.70;99.90
6375;DHT22;35400;45.472;-122.822;2023-04-03T10:58:56;2.70;99.90
6375;DHT22;35400;45.472;-122.822;2023-04-03T11:01:30;2.70;99.90
6375;DHT22;35400;45.472;-122.822;2023-04-03T11:04:00;2.70;99.90
6375;DHT22;35400;45.472;-122.822;2023-04-03T11:06:56;2.60;99.90
6375;DHT22;35400;45.472;-122.822;2023-04-03T11:09:42;2.60;99.90
6375;DHT22;35400;45.472;-122.822;2023-04-03T11:12:17;2.60;99.90
6375;DHT22;35400;45.472;-122.822;2023-04-03T11:14:48;2.50;99.90
6375;DHT22;35400;45.472;-122.822;2023-04-03T11:20:23;2.50;99.90
6375;DHT22;35400;45.472;-122.822;2023-04-03T11:23:02;2.50;99.90
6375;DHT22;35400;45.472;-122.822;2023-04-03T11:25:33;2.40;99.90
6375;DHT22;35400;45.472;-122.822;2023-04-03T11:28:03;2.40;99.90
6375;DHT22;35400;45.472;-122.822;2023-04-03T11:30:50;2.40;99.90
6375;DHT22;35400;45.472;-122.822;2023-04-03T11:36:48;2.30;99.90
6375;DHT22;35400;45.472;-122.822;2023-04-03T11:39:35;2.30;99.90
6375;DHT22;35400;45.472;-122.822;2023-04-03T11:44:41;2.20;99.90
6375;DHT22;35400;45.472;-122.822;2023-04-03T11:47:11;2.20;99.90
6375;DHT22;35400;45.472;-122.822;2023-04-03T11:49:58;2.10;99.90
6375;DHT22;35400;45.472;-122.822;2023-04-03T12:05:53;2.10;99.90
6375;DHT22;35400;45.472;-122.822;2023-04-03T12:16:27;2.00;99.90
6375;DHT22;35400;45.472;-122.822;2023-04-03T12:35:01;2.00;99.90
6375;DHT22;35400;45.472;-122.822;2023-04-03T12:43:17;2.00;99.90
6375;DHT22;35400;45.472;-122.822;2023-04-03T12:48:30;2.00;99.90
6375;DHT22;35400;45.472;-122.822;2023-04-03T12:50:58;2.00;99.90
6375;DHT22;35400;45.472;-122.822;2023-04-03T12:53:33;2.00;99.90
6375;DHT22;35400;45.472;-122.822;2023-04-03T12:56:26;2.00;99.90
6375;DHT22;35400;45.472;-122.822;2023-04-03T12:58:56;2.00;99.90
6375;DHT22;35400;45.472;-122.822;2023-04-03T13:01:39;2.00;99.90
6375;DHT22;35400;45.472;-122.822;2023-04-03T13:04:06;2.00;99.90
6375;DHT22;35400;45.472;-122.822;2023-04-03T13:06:43;2.00;99.90
6375;DHT22;35400;45.472;-122.822;2023-04-03T13:11:52;2.00;99.90
6375;DHT22;35400;45.472;-122.822;2023-04-03T13:14:23;2.00;99.90
6375;DHT22;35400;45.472;-122.822;2023-04-03T13:19:31;2.00;99.90
6375;DHT22;35400;45.472;-122.822;2023-04-03T13:22:02;2.00;99.90
6375;DHT22;35400;45.472;-122.822;2023-04-03T13:24:33;2.00;99.90
6375;DHT22;35400;45.472;-122.822;2023-04-03T13:27:02;2.00;99.90
6375;DHT22;35400;45.472;-122.822;2023-04-03T13:29:33;2.00;99.90
6375;DHT22;35400;45.472;-122.822;2023-04-03T13:32:02;2.00;99.90
6375;DHT22;35400;45.472;-122.822;2023-04-03T13:34:40;2.00;99.90
6375;DHT22;35400;45.472;-122.822;2023-04-03T13:37:32;2.00;99.90
6375;DHT22;35400;45.472;-122.822;2023-04-03T13:42:35;2.00;99.90
6375;DHT22;35400;45.472;-122.822;2023-04-03T13:45:21;2.00;99.90
6375;DHT22;35400;45.472;-122.822;2023-04-03T13:47:52;2.00;99.90
6375;DHT22;35400;45.472;-122.822;2023-04-03T13:50:24;2.10;99.90
6375;DHT22;35400;45.472;-122.822;2023-04-03T13:53:11;2.00;99.90
6375;DHT22;35400;45.472;-122.822;2023-04-03T13:55:55;2.10;99.90
6375;DHT22;35400;45.472;-122.822;2023-04-03T13:58:29;2.10;99.90
6375;DHT22;35400;45.472;-122.822;2023-04-03T14:03:45;2.10;99.90
6375;DHT22;35400;45.472;-122.822;2023-04-03T14:06:15;2.10;99.90
6375;DHT22;35400;45.472;-122.822;2023-04-03T14:08:44;2.20;99.90
6375;DHT22;35400;45.472;-122.822;2023-04-03T14:11:16;2.20;99.90
6375;DHT22;35400;45.472;-122.822;2023-04-03T14:13:45;2.30;99.90
6375;DHT22;35400;45.472;-122.822;2023-04-03T14:16:20;2.30;99.90
6375;DHT22;35400;45.472;-122.822;2023-04-03T14:18:48;2.30;99.90
6375;DHT22;35400;45.472;-122.822;2023-04-03T14:21:17;2.40;99.90
6375;DHT22;35400;45.472;-122.822;2023-04-03T14:23:45;2.40;99.90
6375;DHT22;35400;45.472;-122.822;2023-04-03T14:26:17;2.50;99.90
6375;DHT22;35400;45.472;-122.822;2023-04-03T14:28:52;2.50;99.90
6375;DHT22;35400;45.472;-122.822;2023-04-03T14:31:20;2.50;99.90
6375;DHT22;35400;45.472;-122.822;2023-04-03T14:33:48;2.60;99.90
6375;DHT22;35400;45.472;-122.822;2023-04-03T14:36:21;2.60;99.90
6375;DHT22;35400;45.472;-122.822;2023-04-03T14:38:49;2.60;99.90
6375;DHT22;35400;45.472;-122.822;2023-04-03T14:41:19;2.60;99.90
6375;DHT22;35400;45.472;-122.822;2023-04-03T14:43:47;2.60;99.90
6375;DHT22;35400;45.472;-122.822;2023-04-03T14:46:37;2.60;99.90
6375;DHT22;35400;45.472;-122.822;2023-04-03T14:49:12;2.60;99.90
6375;DHT22;35400;45.472;-122.822;2023-04-03T14:51:40;2.60;99.90
6375;DHT22;35400;45.472;-122.822;2023-04-03T14:54:17;2.60;99.90
6375;DHT22;35400;45.472;-122.822;2023-04-03T14:56:45;2.60;99.90
6375;DHT22;35400;45.472;-122.822;2023-04-03T14:59:13;2.60;99.90
6375;DHT22;35400;45.472;-122.822;2023-04-03T15:01:42;2.70;99.90
6375;DHT22;35400;45.472;-122.822;2023-04-03T15:04:19;2.70;99.90
6375;DHT22;35400;45.472;-122.822;2023-04-03T15:06:48;2.70;99.90
6375;DHT22;35400;45.472;-122.822;2023-04-03T15:09:23;2.70;99.90
6375;DHT22;35400;45.472;-122.822;2023-04-03T15:11:52;2.70;99.90
6375;DHT22;35400;45.472;-122.822;2023-04-03T15:14:20;2.70;99.90
6375;DHT22;35400;45.472;-122.822;2023-04-03T15:16:47;2.80;99.90
6375;DHT22;35400;45.472;-122.822;2023-04-03T15:19:14;2.80;99.90
6375;DHT22;35400;45.472;-122.822;2023-04-03T15:21:41;2.90;99.90
6375;DHT22;35400;45.472;-122.822;2023-04-03T15:24:09;2.90;99.90
6375;DHT22;35400;45.472;-122.822;2023-04-03T15:26:36;3.00;99.90
6375;DHT22;35400;45.472;-122.822;2023-04-03T15:29:04;3.10;99.90
6375;DHT22;35400;45.472;-122.822;2023-04-03T15:31:32;3.10;99.90
6375;DHT22;35400;45.472;-122.822;2023-04-03T15:33:59;3.20;99.90
6375;DHT22;35400;45.472;-122.822;2023-04-03T15:36:26;3.20;99.90
6375;DHT22;35400;45.472;-122.822;2023-04-03T15:38:53;3.30;99.90
6375;DHT22;35400;45.472;-122.822;2023-04-03T15:41:20;3.40;99.90
6375;DHT22;35400;45.472;-122.822;2023-04-03T15:43:47;3.60;99.90
6375;DHT22;35400;45.472;-122.822;2023-04-03T15:46:14;3.70;99.90
6375;DHT22;35400;45.472;-122.822;2023-04-03T15:48:41;3.80;99.90
6375;DHT22;35400;45.472;-122.822;2023-04-03T15:51:08;4.10;99.90
6375;DHT22;35400;45.472;-122.822;2023-04-03T15:53:35;4.40;99.90
6375;DHT22;35400;45.472;-122.822;2023-04-03T15:56:03;4.70;99.90
6375;DHT22;35400;45.472;-122.822;2023-04-03T15:58:31;5.00;99.90
6375;DHT22;35400;45.472;-122.822;2023-04-03T16:00:58;5.20;99.90
6375;DHT22;35400;45.472;-122.822;2023-04-03T16:03:25;5.50;99.90
6375;DHT22;35400;45.472;-122.822;2023-04-03T16:05:53;5.80;99.90
6375;DHT22;35400;45.472;-122.822;2023-04-03T16:08:20;6.20;99.90
6375;DHT22;35400;45.472;-122.822;2023-04-03T16:10:47;6.70;99.90
6375;DHT22;35400;45.472;-122.822;2023-04-03T16:13:15;7.40;99.90
6375;DHT22;35400;45.472;-122.822;2023-04-03T16:15:42;7.80;99.90
6375;DHT22;35400;45.472;-122.822;2023-04-03T16:18:09;8.00;99.90
6375;DHT22;35400;45.472;-122.822;2023-04-03T16:20:37;8.10;99.90
6375;DHT22;35400;45.472;-122.822;2023-04-03T16:23:04;8.10;99.90
6375;DHT22;35400;45.472;-122.822;2023-04-03T16:25:31;8.10;99.90
6375;DHT22;35400;45.472;-122.822;2023-04-03T16:27:58;8.00;99.90
6375;DHT22;35400;45.472;-122.822;2023-04-03T16:30:25;7.90;99.90
6375;DHT22;35400;45.472;-122.822;2023-04-03T16:32:53;7.80;99.90
6375;DHT22;35400;45.472;-122.822;2023-04-03T16:35:22;7.80;99.90
6375;DHT22;35400;45.472;-122.822;2023-04-03T16:37:49;7.80;99.90
6375;DHT22;35400;45.472;-122.822;2023-04-03T16:40:16;7.70;99.90
6375;DHT22;35400;45.472;-122.822;2023-04-03T16:42:43;7.70;99.90
6375;DHT22;35400;45.472;-122.822;2023-04-03T16:45:10;7.70;99.90
6375;DHT22;35400;45.472;-122.822;2023-04-03T16:47:37;7.70;99.90
6375;DHT22;35400;45.472;-122.822;2023-04-03T16:50:05;7.60;99.90
6375;DHT22;35400;45.472;-122.822;2023-04-03T16:52:32;7.50;99.90
6375;DHT22;35400;45.472;-122.822;2023-04-03T16:54:59;7.40;99.90
6375;DHT22;35400;45.472;-122.822;2023-04-03T16:57:26;7.40;99.90
6375;DHT22;35400;45.472;-122.822;2023-04-03T16:59:55;7.30;99.90
6375;DHT22;35400;45.472;-122.822;2023-04-03T17:02:24;7.30;99.90
6375;DHT22;35400;45.472;-122.822;2023-04-03T17:04:55;7.30;99.90
6375;DHT22;35400;45.472;-122.822;2023-04-03T17:07:24;7.20;99.90
6375;DHT22;35400;45.472;-122.822;2023-04-03T17:09:51;7.30;99.90
6375;DHT22;35400;45.472;-122.822;2023-04-03T17:12:20;7.30;99.90
6375;DHT22;35400;45.472;-122.822;2023-04-03T17:14:47;7.30;99.90
6375;DHT22;35400;45.472;-122.822;2023-04-03T17:17:15;7.30;99.90
6375;DHT22;35400;45.472;-122.822;2023-04-03T17:19:45;7.30;99.90
6375;DHT22;35400;45.472;-122.822;2023-04-03T17:22:12;7.40;99.90
6375;DHT22;35400;45.472;-122.822;2023-04-03T17:24:39;7.40;99.90
6375;DHT22;35400;45.472;-122.822;2023-04-03T17:27:06;7.50;99.90
6375;DHT22;35400;45.472;-122.822;2023-04-03T17:29:33;7.60;99.90
6375;DHT22;35400;45.472;-122.822;2023-04-03T17:31:59;7.70;99.90
6375;DHT22;35400;45.472;-122.822;2023-04-03T17:34:26;7.80;99.90
6375;DHT22;35400;45.472;-122.822;2023-04-03T17:36:53;7.80;99.90